sensor_id;sensor_type;location;lat;lon;timestamp;temperature;humidity
23395;DHT22;11870;53.084;18.206;2022-11-20T00:00:11;-0.10;99.90
23395;DHT22;11870;53.084;18.206;2022-11-20T00:02:57;-0.20;99.90
23395;DHT22;11870;53.084;18.206;2022-11-20T00:05:23;-0.20;99.90
23395;DHT22;11870;53.084;18.206;2022-11-20T00:07:50;0.00;99.90
23395;DHT22;11870;53.084;18.206;2022-11-20T00:10:16;0.10;99.90
23395;DHT22;11870;53.084;18.206;2022-11-20T00:12:42;0.20;99.90
23395;DHT22;11870;53.084;18.206;2022-11-20T00:15:09;0.10;99.90
23395;DHT22;11870;53.084;18.206;2022-11-20T00:17:35;0.10;99.90
23395;DHT22;11870;53.084;18.206;2022-11-20T00:20:01;0.30;99.90
23395;DHT22;11870;53.084;18.206;2022-11-20T00:22:27;0.30;99.90
23395;DHT22;11870;53.084;18.206;2022-11-20T00:24:53;0.40;99.90
23395;DHT22;11870;53.084;18.206;2022-11-20T00:27:19;0.40;99.90
23395;DHT22;11870;53.084;18.206;2022-11-20T00:29:45;0.40;99.90
23395;DHT22;11870;53.084;18.206;2022-11-20T00:32:11;0.40;99.90
23395;DHT22;11870;53.084;18.206;2022-11-20T00:34:37;0.40;99.90
23395;DHT22;11870;53.084;18.206;2022-11-20T00:37:03;0.40;99.90
23395;DHT22;11870;53.084;18.206;2022-11-20T00:39:28;0.50;99.90
23395;DHT22;11870;53.084;18.206;2022-11-20T00:41:54;0.40;99.90
23395;DHT22;11870;53.084;18.206;2022-11-20T00:44:20;0.50;99.90
23395;DHT22;11870;53.084;18.206;2022-11-20T00:46:46;0.30;99.90
23395;DHT22;11870;53.084;18.206;2022-11-20T00:49:12;0.30;99.90
23395;DHT22;11870;53.084;18.206;2022-11-20T00:51:38;0.30;99.90
23395;DHT22;11870;53.084;18.206;2022-11-20T00:54:04;0.30;99.90
23395;DHT22;11870;53.084;18.206;2022-11-20T00:56:30;0.40;99.90
23395;DHT22;11870;53.084;18.206;2022-11-20T00:58:58;0.40;99.90
23395;DHT22;11870;53.084;18.206;2022-11-20T01:01:26;0.30;99.90
23395;DHT22;11870;53.084;18.206;2022-11-20T01:03:53;0.30;99.90
23395;DHT22;11870;53.084;18.206;2022-11-20T01:08:56;0.40;99.90
23395;DHT22;11870;53.084;18.206;2022-11-20T01:11:31;0.40;99.90
23395;DHT22;11870;53.084;18.206;2022-11-20T01:13:58;0.30;99.90
23395;DHT22;11870;53.084;18.206;2022-11-20T01:16:27;0.30;99.90
23395;DHT22;11870;53.084;18.206;2022-11-20T01:18:57;0.40;99.90
23395;DHT22;11870;53.084;18.206;2022-11-20T01:21:29;0.30;99.90
23395;DHT22;11870;53.084;18.206;2022-11-20T01:23:56;0.30;99.90
23395;DHT22;11870;53.084;18.206;2022-11-20T01:26:24;0.30;99.90
23395;DHT22;11870;53.084;18.206;2022-11-20T01:28:51;0.30;99.90
23395;DHT22;11870;53.084;18.206;2022-11-20T01:33:45;0.20;99.90
23395;DHT22;11870;53.084;18.206;2022-11-20T01:36:12;0.20;99.90
23395;DHT22;11870;53.084;18.206;2022-11-20T01:38:38;0.30;99.90
23395;DHT22;11870;53.084;18.206;2022-11-20T01:41:05;0.30;99.90
23395;DHT22;11870;53.084;18.206;2022-11-20T01:43:31;0.40;99.90
23395;DHT22;11870;53.084;18.206;2022-11-20T01:48:28;0.50;99.90
23395;DHT22;11870;53.084;18.206;2022-11-20T01:50:57;0.40;99.90
23395;DHT22;11870;53.084;18.206;2022-11-20T01:53:27;0.40;99.90
23395;DHT22;11870;53.084;18.206;2022-11-20T01:55:57;0.30;99.90
23395;DHT22;11870;53.084;18.206;2022-11-20T01:58:28;0.40;99.90
23395;DHT22;11870;53.084;18.206;2022-11-20T02:00:55;0.40;99.90
23395;DHT22;11870;53.084;18.206;2022-11-20T02:03:21;0.40;99.90
23395;DHT22;11870;53.084;18.206;2022-11-20T02:08:51;0.40;99.90
23395;DHT22;11870;53.084;18.206;2022-11-20T02:11:18;0.40;99.90
23395;DHT22;11870;53.084;18.206;2022-11-20T02:13:44;0.40;99.90
23395;DHT22;11870;53.084;18.206;2022-11-20T02:16:17;0.30;99.90
23395;DHT22;11870;53.084;18.206;2022-11-20T02:18:45;0.30;99.90
23395;DHT22;11870;53.084;18.206;2022-11-20T02:24:07;0.30;99.90
23395;DHT22;11870;53.084;18.206;2022-11-20T02:26:43;0.30;99.90
23395;DHT22;11870;53.084;18.206;2022-11-20T02:29:09;0.20;99.90
23395;DHT22;11870;53.084;18.206;2022-11-20T02:31:41;0.20;99.90
23395;DHT22;11870;53.084;18.206;2022-11-20T02:34:07;0.20;99.90
23395;DHT22;11870;53.084;18.206;2022-11-20T02:36:36;0.20;99.90
23395;DHT22;11870;53.084;18.206;2022-11-20T02:39:04;0.20;99.90
23395;DHT22;11870;53.084;18.206;2022-11-20T02:41:32;0.20;99.90
23395;DHT22;11870;53.084;18.206;2022-11-20T02:43:58;0.20;99.90
23395;DHT22;11870;53.084;18.206;2022-11-20T02:46:24;0.20;99.90
23395;DHT22;11870;53.084;18.206;2022-11-20T02:48:50;0.10;99.90
23395;DHT22;11870;53.084;18.206;2022-11-20T02:51:16;0.10;99.90
23395;DHT22;11870;53.084;18.206;2022-11-20T02:53:41;0.00;99.90
23395;DHT22;11870;53.084;18.206;2022-11-20T02:56:07;0.00;99.90
23395;DHT22;11870;53.084;18.206;2022-11-20T02:58:33;-0.10;99.90
23395;DHT22;11870;53.084;18.206;2022-11-20T03:00:59;-0.20;99.90
23395;DHT22;11870;53.084;18.206;2022-11-20T03:03:25;-0.10;99.90
23395;DHT22;11870;53.084;18.206;2022-11-20T03:05:51;0.00;99.90
23395;DHT22;11870;53.084;18.206;2022-11-20T03:08:17;0.10;99.90
23395;DHT22;11870;53.084;18.206;2022-11-20T03:10:43;0.10;99.90
23395;DHT22;11870;53.084;18.206;2022-11-20T03:13:08;0.00;99.90
23395;DHT22;11870;53.084;18.206;2022-11-20T03:15:36;0.00;99.90
23395;DHT22;11870;53.084;18.206;2022-11-20T03:18:02;0.20;99.90
23395;DHT22;11870;53.084;18.206;2022-11-20T03:20:29;0.20;99.90
23395;DHT22;11870;53.084;18.206;2022-11-20T03:22:55;0.20;99.90
23395;DHT22;11870;53.084;18.206;2022-11-20T03:25:21;0.20;99.90
23395;DHT22;11870;53.084;18.206;2022-11-20T03:27:47;0.10;99.90
23395;DHT22;11870;53.084;18.206;2022-11-20T03:30:14;0.10;99.90
23395;DHT22;11870;53.084;18.206;2022-11-20T03:32:40;0.00;99.90
23395;DHT22;11870;53.084;18.206;2022-11-20T03:35:07;0.10;99.90
23395;DHT22;11870;53.084;18.206;2022-11-20T03:37:33;0.00;99.90
23395;DHT22;11870;53.084;18.206;2022-11-20T03:39:59;0.00;99.90
23395;DHT22;11870;53.084;18.206;2022-11-20T03:42:24;0.10;99.90
23395;DHT22;11870;53.084;18.206;2022-11-20T03:45:09;0.10;99.90
23395;DHT22;11870;53.084;18.206;2022-11-20T03:47:35;0.10;99.90
23395;DHT22;11870;53.084;18.206;2022-11-20T03:50:01;0.00;99.90
23395;DHT22;11870;53.084;18.206;2022-11-20T03:52:27;0.00;99.90
23395;DHT22;11870;53.084;18.206;2022-11-20T03:54:53;0.00;99.90
23395;DHT22;11870;53.084;18.206;2022-11-20T03:57:19;0.10;99.90
23395;DHT22;11870;53.084;18.206;2022-11-20T03:59:45;0.10;99.90
23395;DHT22;11870;53.084;18.206;2022-11-20T04:02:11;0.10;99.90
23395;DHT22;11870;53.084;18.206;2022-11-20T04:04:37;0.20;99.90
23395;DHT22;11870;53.084;18.206;2022-11-20T04:07:03;0.20;99.90
23395;DHT22;11870;53.084;18.206;2022-11-20T04:09:29;0.20;99.90
23395;DHT22;11870;53.084;18.206;2022-11-20T04:11:55;0.10;99.90
23395;DHT22;11870;53.084;18.206;2022-11-20T04:14:21;0.10;99.90
23395;DHT22;11870;53.084;18.206;2022-11-20T04:16:47;0.10;99.90
23395;DHT22;11870;53.084;18.206;2022-11-20T04:19:15;0.00;99.90
23395;DHT22;11870;53.084;18.206;2022-11-20T04:21:42;0.00;99.90
23395;DHT22;11870;53.084;18.206;2022-11-20T04:24:09;-0.20;99.90
23395;DHT22;11870;53.084;18.206;2022-11-20T04:26:36;-0.20;99.90
23395;DHT22;11870;53.084;18.206;2022-11-20T04:29:02;-0.30;99.90
23395;DHT22;11870;53.084;18.206;2022-11-20T04:31:31;-0.30;99.90
23395;DHT22;11870;53.084;18.206;2022-11-20T04:34:05;-0.30;99.90
23395;DHT22;11870;53.084;18.206;2022-11-20T04:36:32;-0.30;99.90
23395;DHT22;11870;53.084;18.206;2022-11-20T04:39:00;-0.30;99.90
23395;DHT22;11870;53.084;18.206;2022-11-20T04:41:30;-0.20;99.90
23395;DHT22;11870;53.084;18.206;2022-11-20T04:43:57;-0.10;99.90
23395;DHT22;11870;53.084;18.206;2022-11-20T04:46:33;-0.10;99.90
23395;DHT22;11870;53.084;18.206;2022-11-20T04:49:00;-0.10;99.90
23395;DHT22;11870;53.084;18.206;2022-11-20T04:51:27;-0.10;99.90
23395;DHT22;11870;53.084;18.206;2022-11-20T04:53:53;-0.10;99.90
23395;DHT22;11870;53.084;18.206;2022-11-20T04:56:19;-0.10;99.90
23395;DHT22;11870;53.084;18.206;2022-11-20T04:58:45;-0.10;99.90
23395;DHT22;11870;53.084;18.206;2022-11-20T05:01:14;0.00;99.90
23395;DHT22;11870;53.084;18.206;2022-11-20T05:03:41;0.10;99.90
23395;DHT22;11870;53.084;18.206;2022-11-20T05:06:09;0.00;99.90
23395;DHT22;11870;53.084;18.206;2022-11-20T05:08:35;-0.10;99.90
23395;DHT22;11870;53.084;18.206;2022-11-20T05:11:10;0.00;99.90
23395;DHT22;11870;53.084;18.206;2022-11-20T05:13:37;-0.10;99.90
23395;DHT22;11870;53.084;18.206;2022-11-20T05:16:17;0.00;99.90
23395;DHT22;11870;53.084;18.206;2022-11-20T05:18:43;0.10;99.90
23395;DHT22;11870;53.084;18.206;2022-11-20T05:21:10;0.10;99.90
23395;DHT22;11870;53.084;18.206;2022-11-20T05:23:37;0.20;99.90
23395;DHT22;11870;53.084;18.206;2022-11-20T05:26:04;0.20;99.90
23395;DHT22;11870;53.084;18.206;2022-11-20T05:28:30;0.00;99.90
23395;DHT22;11870;53.084;18.206;2022-11-20T05:31:07;0.00;99.90
23395;DHT22;11870;53.084;18.206;2022-11-20T05:33:39;0.00;99.90
23395;DHT22;11870;53.084;18.206;2022-11-20T05:36:05;0.00;99.90
23395;DHT22;11870;53.084;18.206;2022-11-20T05:38:32;-0.10;99.90
23395;DHT22;11870;53.084;18.206;2022-11-20T05:41:06;-0.20;99.90
23395;DHT22;11870;53.084;18.206;2022-11-20T05:43:36;-0.20;99.90
23395;DHT22;11870;53.084;18.206;2022-11-20T05:46:04;-0.10;99.90
23395;DHT22;11870;53.084;18.206;2022-11-20T05:48:31;0.00;99.90
23395;DHT22;11870;53.084;18.206;2022-11-20T05:50:58;0.00;99.90
23395;DHT22;11870;53.084;18.206;2022-11-20T05:53:25;0.10;99.90
23395;DHT22;11870;53.084;18.206;2022-11-20T05:56:01;0.10;99.90
23395;DHT22;11870;53.084;18.206;2022-11-20T05:58:28;0.20;99.90
23395;DHT22;11870;53.084;18.206;2022-11-20T06:00:55;0.10;99.90
23395;DHT22;11870;53.084;18.206;2022-11-20T06:03:28;0.00;99.90
23395;DHT22;11870;53.084;18.206;2022-11-20T06:05:54;0.00;99.90
23395;DHT22;11870;53.084;18.206;2022-11-20T06:08:20;0.00;99.90
23395;DHT22;11870;53.084;18.206;2022-11-20T06:10:46;0.00;99.90
23395;DHT22;11870;53.084;18.206;2022-11-20T06:13:12;-0.10;99.90
23395;DHT22;11870;53.084;18.206;2022-11-20T06:15:37;-0.10;99.90
23395;DHT22;11870;53.084;18.206;2022-11-20T06:18:04;-0.10;99.90
23395;DHT22;11870;53.084;18.206;2022-11-20T06:20:29;-0.10;99.90
23395;DHT22;11870;53.084;18.206;2022-11-20T06:22:55;-0.10;99.90
23395;DHT22;11870;53.084;18.206;2022-11-20T06:25:21;-0.10;99.90
23395;DHT22;11870;53.084;18.206;2022-11-20T06:27:47;-0.10;99.90
23395;DHT22;11870;53.084;18.206;2022-11-20T06:30:13;-0.20;99.90
23395;DHT22;11870;53.084;18.206;2022-11-20T06:32:39;-0.20;99.90
23395;DHT22;11870;53.084;18.206;2022-11-20T06:35:05;-0.20;99.90
23395;DHT22;11870;53.084;18.206;2022-11-20T06:37:31;-0.20;99.90
23395;DHT22;11870;53.084;18.206;2022-11-20T06:39:57;-0.20;99.90
23395;DHT22;11870;53.084;18.206;2022-11-20T06:42:23;-0.20;99.90
23395;DHT22;11870;53.084;18.206;2022-11-20T06:44:49;-0.20;99.90
23395;DHT22;11870;53.084;18.206;2022-11-20T06:47:15;-0.30;99.90
23395;DHT22;11870;53.084;18.206;2022-11-20T06:49:41;-0.30;99.90
23395;DHT22;11870;53.084;18.206;2022-11-20T06:52:07;-0.30;99.90
23395;DHT22;11870;53.084;18.206;2022-11-20T06:54:32;-0.30;99.90
23395;DHT22;11870;53.084;18.206;2022-11-20T06:56:58;-0.20;99.90
23395;DHT22;11870;53.084;18.206;2022-11-20T06:59:24;-0.30;99.90
23395;DHT22;11870;53.084;18.206;2022-11-20T07:01:50;-0.20;99.90
23395;DHT22;11870;53.084;18.206;2022-11-20T07:04:16;-0.10;99.90
23395;DHT22;11870;53.084;18.206;2022-11-20T07:06:42;-0.10;99.90
23395;DHT22;11870;53.084;18.206;2022-11-20T07:09:08;-0.10;99.90
23395;DHT22;11870;53.084;18.206;2022-11-20T07:11:33;0.00;99.90
23395;DHT22;11870;53.084;18.206;2022-11-20T07:13:59;0.00;99.90
23395;DHT22;11870;53.084;18.206;2022-11-20T07:16:25;0.10;99.90
23395;DHT22;11870;53.084;18.206;2022-11-20T07:18:51;0.10;99.90
23395;DHT22;11870;53.084;18.206;2022-11-20T07:21:17;0.10;99.90
23395;DHT22;11870;53.084;18.206;2022-11-20T07:23:43;0.00;99.90
23395;DHT22;11870;53.084;18.206;2022-11-20T07:26:10;0.00;99.90
23395;DHT22;11870;53.084;18.206;2022-11-20T07:28:37;0.00;99.90
23395;DHT22;11870;53.084;18.206;2022-11-20T07:31:04;0.10;99.90
23395;DHT22;11870;53.084;18.206;2022-11-20T07:33:30;0.10;99.90
23395;DHT22;11870;53.084;18.206;2022-11-20T07:35:58;0.10;99.90
23395;DHT22;11870;53.084;18.206;2022-11-20T07:38:24;0.20;99.90
23395;DHT22;11870;53.084;18.206;2022-11-20T07:40:54;0.40;99.90
23395;DHT22;11870;53.084;18.206;2022-11-20T07:43:20;0.40;99.90
23395;DHT22;11870;53.084;18.206;2022-11-20T07:45:46;0.40;99.90
23395;DHT22;11870;53.084;18.206;2022-11-20T07:48:12;0.40;99.90
23395;DHT22;11870;53.084;18.206;2022-11-20T07:50:38;0.40;99.90
23395;DHT22;11870;53.084;18.206;2022-11-20T07:53:04;0.30;99.90
23395;DHT22;11870;53.084;18.206;2022-11-20T07:55:31;0.30;99.90
23395;DHT22;11870;53.084;18.206;2022-11-20T07:57:57;0.40;99.90
23395;DHT22;11870;53.084;18.206;2022-11-20T08:00:23;0.40;99.90
23395;DHT22;11870;53.084;18.206;2022-11-20T08:02:49;0.50;99.90
23395;DHT22;11870;53.084;18.206;2022-11-20T08:05:15;0.50;99.90
23395;DHT22;11870;53.084;18.206;2022-11-20T08:07:42;0.60;99.90
23395;DHT22;11870;53.084;18.206;2022-11-20T08:10:11;0.60;99.90
23395;DHT22;11870;53.084;18.206;2022-11-20T08:12:45;0.70;99.90
23395;DHT22;11870;53.084;18.206;2022-11-20T08:15:30;0.90;99.90
23395;DHT22;11870;53.084;18.206;2022-11-20T08:18:14;1.00;99.90
23395;DHT22;11870;53.084;18.206;2022-11-20T08:20:40;1.00;99.90
23395;DHT22;11870;53.084;18.206;2022-11-20T08:23:07;1.10;99.90
23395;DHT22;11870;53.084;18.206;2022-11-20T08:25:34;1.10;99.90
23395;DHT22;11870;53.084;18.206;2022-11-20T08:28:06;1.10;99.90
23395;DHT22;11870;53.084;18.206;2022-11-20T08:30:33;1.10;99.90
23395;DHT22;11870;53.084;18.206;2022-11-20T08:33:04;1.20;99.90
23395;DHT22;11870;53.084;18.206;2022-11-20T08:35:37;1.30;99.90
23395;DHT22;11870;53.084;18.206;2022-11-20T08:38:05;1.40;99.90
23395;DHT22;11870;53.084;18.206;2022-11-20T08:40:32;1.50;99.90
23395;DHT22;11870;53.084;18.206;2022-11-20T08:42:58;1.60;99.90
23395;DHT22;11870;53.084;18.206;2022-11-20T08:45:24;1.50;99.90
23395;DHT22;11870;53.084;18.206;2022-11-20T08:47:49;1.60;99.90
23395;DHT22;11870;53.084;18.206;2022-11-20T08:50:16;1.60;99.90
23395;DHT22;11870;53.084;18.206;2022-11-20T08:52:42;1.70;99.90
23395;DHT22;11870;53.084;18.206;2022-11-20T08:55:09;1.70;99.90
23395;DHT22;11870;53.084;18.206;2022-11-20T08:57:36;1.80;99.90
23395;DHT22;11870;53.084;18.206;2022-11-20T09:00:04;1.80;99.90
23395;DHT22;11870;53.084;18.206;2022-11-20T09:02:31;1.80;99.90
23395;DHT22;11870;53.084;18.206;2022-11-20T09:04:58;1.90;99.90
23395;DHT22;11870;53.084;18.206;2022-11-20T09:07:24;1.80;99.90
23395;DHT22;11870;53.084;18.206;2022-11-20T09:09:50;1.80;99.90
23395;DHT22;11870;53.084;18.206;2022-11-20T09:12:15;1.60;99.90
23395;DHT22;11870;53.084;18.206;2022-11-20T09:14:41;1.60;99.90
23395;DHT22;11870;53.084;18.206;2022-11-20T09:17:09;1.70;99.90
23395;DHT22;11870;53.084;18.206;2022-11-20T09:19:35;1.70;99.90
23395;DHT22;11870;53.084;18.206;2022-11-20T09:22:01;1.70;99.90
23395;DHT22;11870;53.084;18.206;2022-11-20T09:24:27;1.70;99.90
23395;DHT22;11870;53.084;18.206;2022-11-20T09:26:53;1.80;99.90
23395;DHT22;11870;53.084;18.206;2022-11-20T09:29:19;1.90;99.90
23395;DHT22;11870;53.084;18.206;2022-11-20T09:31:45;2.00;99.90
23395;DHT22;11870;53.084;18.206;2022-11-20T09:34:11;2.10;99.90
23395;DHT22;11870;53.084;18.206;2022-11-20T09:36:37;2.20;99.90
23395;DHT22;11870;53.084;18.206;2022-11-20T09:39:03;2.40;99.90
23395;DHT22;11870;53.084;18.206;2022-11-20T09:47:25;2.80;99.90
23395;DHT22;11870;53.084;18.206;2022-11-20T09:50:17;2.80;99.90
23395;DHT22;11870;53.084;18.206;2022-11-20T09:52:58;2.80;99.90
23395;DHT22;11870;53.084;18.206;2022-11-20T09:55:29;2.80;99.90
23395;DHT22;11870;53.084;18.206;2022-11-20T09:57:57;2.90;99.90
23395;DHT22;11870;53.084;18.206;2022-11-20T10:00:26;2.90;99.90
23395;DHT22;11870;53.084;18.206;2022-11-20T10:03:01;2.60;99.90
23395;DHT22;11870;53.084;18.206;2022-11-20T10:05:46;2.50;99.90
23395;DHT22;11870;53.084;18.206;2022-11-20T10:08:30;2.30;99.90
23395;DHT22;11870;53.084;18.206;2022-11-20T10:11:18;2.10;99.90
23395;DHT22;11870;53.084;18.206;2022-11-20T10:22:35;1.90;99.90
23395;DHT22;11870;53.084;18.206;2022-11-20T10:25:18;1.90;99.90
23395;DHT22;11870;53.084;18.206;2022-11-20T10:27:56;1.90;99.90
23395;DHT22;11870;53.084;18.206;2022-11-20T10:30:27;1.90;99.90
23395;DHT22;11870;53.084;18.206;2022-11-20T10:33:04;2.00;99.90
23395;DHT22;11870;53.084;18.206;2022-11-20T10:35:41;2.10;99.90
23395;DHT22;11870;53.084;18.206;2022-11-20T10:38:18;2.10;99.90
23395;DHT22;11870;53.084;18.206;2022-11-20T10:40:56;2.10;99.90
23395;DHT22;11870;53.084;18.206;2022-11-20T10:43:44;2.20;99.90
23395;DHT22;11870;53.084;18.206;2022-11-20T10:46:18;2.20;99.90
23395;DHT22;11870;53.084;18.206;2022-11-20T10:48:45;2.20;99.90
23395;DHT22;11870;53.084;18.206;2022-11-20T10:51:20;2.30;99.90
23395;DHT22;11870;53.084;18.206;2022-11-20T10:54:09;2.20;99.90
23395;DHT22;11870;53.084;18.206;2022-11-20T10:56:47;2.20;99.90
23395;DHT22;11870;53.084;18.206;2022-11-20T11:01:54;2.20;99.90
23395;DHT22;11870;53.084;18.206;2022-11-20T11:04:35;2.20;99.90
23395;DHT22;11870;53.084;18.206;2022-11-20T11:07:17;2.30;99.90
23395;DHT22;11870;53.084;18.206;2022-11-20T11:09:55;2.40;99.90
23395;DHT22;11870;53.084;18.206;2022-11-20T11:12:24;2.40;99.90
23395;DHT22;11870;53.084;18.206;2022-11-20T11:14:53;2.30;99.90
23395;DHT22;11870;53.084;18.206;2022-11-20T11:17:31;2.40;99.90
23395;DHT22;11870;53.084;18.206;2022-11-20T11:20:16;2.40;99.90
23395;DHT22;11870;53.084;18.206;2022-11-20T11:22:45;2.50;99.90
23395;DHT22;11870;53.084;18.206;2022-11-20T11:25:20;2.50;99.90
23395;DHT22;11870;53.084;18.206;2022-11-20T11:27:48;2.40;99.90
23395;DHT22;11870;53.084;18.206;2022-11-20T11:30:15;2.40;99.90
23395;DHT22;11870;53.084;18.206;2022-11-20T11:32:42;2.20;99.90
23395;DHT22;11870;53.084;18.206;2022-11-20T11:35:22;2.20;99.90
23395;DHT22;11870;53.084;18.206;2022-11-20T11:37:48;2.00;99.90
23395;DHT22;11870;53.084;18.206;2022-11-20T11:40:15;1.90;99.90
23395;DHT22;11870;53.084;18.206;2022-11-20T11:43:06;1.80;99.90
23395;DHT22;11870;53.084;18.206;2022-11-20T11:45:54;1.80;99.90
23395;DHT22;11870;53.084;18.206;2022-11-20T11:48:21;1.90;99.90
23395;DHT22;11870;53.084;18.206;2022-11-20T11:50:50;1.90;99.90
23395;DHT22;11870;53.084;18.206;2022-11-20T11:53:22;1.80;99.90
23395;DHT22;11870;53.084;18.206;2022-11-20T11:55:59;1.80;99.90
23395;DHT22;11870;53.084;18.206;2022-11-20T11:58:47;1.80;99.90
23395;DHT22;11870;53.084;18.206;2022-11-20T12:01:32;1.70;99.90
23395;DHT22;11870;53.084;18.206;2022-11-20T12:06:43;1.60;99.90
23395;DHT22;11870;53.084;18.206;2022-11-20T12:09:11;1.60;99.90
23395;DHT22;11870;53.084;18.206;2022-11-20T12:11:49;1.70;99.90
23395;DHT22;11870;53.084;18.206;2022-11-20T12:14:27;1.70;99.90
23395;DHT22;11870;53.084;18.206;2022-11-20T12:16:56;1.70;99.90
23395;DHT22;11870;53.084;18.206;2022-11-20T12:19:23;1.70;99.90
23395;DHT22;11870;53.084;18.206;2022-11-20T12:25:10;1.70;99.90
23395;DHT22;11870;53.084;18.206;2022-11-20T12:30:20;1.80;99.90
23395;DHT22;11870;53.084;18.206;2022-11-20T12:43:43;2.50;99.90
23395;DHT22;11870;53.084;18.206;2022-11-20T12:46:47;2.40;99.90
23395;DHT22;11870;53.084;18.206;2022-11-20T12:57:28;2.60;99.90
23395;DHT22;11870;53.084;18.206;2022-11-20T13:00:15;2.40;99.90
23395;DHT22;11870;53.084;18.206;2022-11-20T13:05:54;2.60;99.90
23395;DHT22;11870;53.084;18.206;2022-11-20T13:08:34;2.70;99.90
23395;DHT22;11870;53.084;18.206;2022-11-20T13:11:23;2.80;99.90
23395;DHT22;11870;53.084;18.206;2022-11-20T13:17:17;2.70;99.90
23395;DHT22;11870;53.084;18.206;2022-11-20T13:19:53;2.80;99.90
23395;DHT22;11870;53.084;18.206;2022-11-20T13:22:27;2.70;99.90
23395;DHT22;11870;53.084;18.206;2022-11-20T13:24:54;2.70;99.90
23395;DHT22;11870;53.084;18.206;2022-11-20T13:27:24;2.70;99.90
23395;DHT22;11870;53.084;18.206;2022-11-20T13:30:16;2.70;99.90
23395;DHT22;11870;53.084;18.206;2022-11-20T13:32:55;2.70;99.90
23395;DHT22;11870;53.084;18.206;2022-11-20T13:35:31;2.60;99.90
23395;DHT22;11870;53.084;18.206;2022-11-20T13:40:33;2.30;99.90
23395;DHT22;11870;53.084;18.206;2022-11-20T13:43:15;2.10;99.90
23395;DHT22;11870;53.084;18.206;2022-11-20T13:46:07;2.10;99.90
23395;DHT22;11870;53.084;18.206;2022-11-20T13:48:42;2.10;99.90
23395;DHT22;11870;53.084;18.206;2022-11-20T13:54:02;2.00;99.90
23395;DHT22;11870;53.084;18.206;2022-11-20T13:59:37;1.80;99.90
23395;DHT22;11870;53.084;18.206;2022-11-20T14:02:16;1.70;99.90
23395;DHT22;11870;53.084;18.206;2022-11-20T14:04:53;1.60;99.90
23395;DHT22;11870;53.084;18.206;2022-11-20T14:07:22;1.50;99.90
23395;DHT22;11870;53.084;18.206;2022-11-20T14:09:52;1.60;99.90
23395;DHT22;11870;53.084;18.206;2022-11-20T14:12:27;1.50;99.90
23395;DHT22;11870;53.084;18.206;2022-11-20T14:14:54;1.40;99.90
23395;DHT22;11870;53.084;18.206;2022-11-20T14:19:55;1.20;99.90
23395;DHT22;11870;53.084;18.206;2022-11-20T14:22:25;1.20;99.90
23395;DHT22;11870;53.084;18.206;2022-11-20T14:25:04;1.00;99.90
23395;DHT22;11870;53.084;18.206;2022-11-20T14:27:34;1.10;99.90
23395;DHT22;11870;53.084;18.206;2022-11-20T14:30:02;1.10;99.90
23395;DHT22;11870;53.084;18.206;2022-11-20T14:32:30;1.00;99.90
23395;DHT22;11870;53.084;18.206;2022-11-20T14:35:02;1.00;99.90
23395;DHT22;11870;53.084;18.206;2022-11-20T14:37:36;1.00;99.90
23395;DHT22;11870;53.084;18.206;2022-11-20T14:40:02;1.00;99.90
23395;DHT22;11870;53.084;18.206;2022-11-20T14:42:28;1.10;99.90
23395;DHT22;11870;53.084;18.206;2022-11-20T14:44:58;1.00;99.90
23395;DHT22;11870;53.084;18.206;2022-11-20T14:47:30;0.90;99.90
23395;DHT22;11870;53.084;18.206;2022-11-20T14:49:58;0.80;99.90
23395;DHT22;11870;53.084;18.206;2022-11-20T14:52:26;0.80;99.90
23395;DHT22;11870;53.084;18.206;2022-11-20T14:54:57;0.80;99.90
23395;DHT22;11870;53.084;18.206;2022-11-20T14:57:32;0.80;99.90
23395;DHT22;11870;53.084;18.206;2022-11-20T15:02:30;0.60;99.90
23395;DHT22;11870;53.084;18.206;2022-11-20T15:04:58;0.60;99.90
23395;DHT22;11870;53.084;18.206;2022-11-20T15:07:26;0.60;99.90
23395;DHT22;11870;53.084;18.206;2022-11-20T15:10:08;0.60;99.90
23395;DHT22;11870;53.084;18.206;2022-11-20T15:12:38;0.60;99.90
23395;DHT22;11870;53.084;18.206;2022-11-20T15:15:05;0.50;99.90
23395;DHT22;11870;53.084;18.206;2022-11-20T15:17:32;0.50;99.90
23395;DHT22;11870;53.084;18.206;2022-11-20T15:20:02;0.50;99.90
23395;DHT22;11870;53.084;18.206;2022-11-20T15:22:28;0.40;99.90
23395;DHT22;11870;53.084;18.206;2022-11-20T15:24:54;0.40;99.90
23395;DHT22;11870;53.084;18.206;2022-11-20T15:27:20;0.40;99.90
23395;DHT22;11870;53.084;18.206;2022-11-20T15:29:46;0.30;99.90
23395;DHT22;11870;53.084;18.206;2022-11-20T15:32:12;0.30;99.90
23395;DHT22;11870;53.084;18.206;2022-11-20T15:34:38;0.20;99.90
23395;DHT22;11870;53.084;18.206;2022-11-20T15:37:03;0.20;99.90
23395;DHT22;11870;53.084;18.206;2022-11-20T15:39:29;0.20;99.90
23395;DHT22;11870;53.084;18.206;2022-11-20T15:41:56;0.10;99.90
23395;DHT22;11870;53.084;18.206;2022-11-20T15:44:22;0.10;99.90
23395;DHT22;11870;53.084;18.206;2022-11-20T15:46:47;0.10;99.90
23395;DHT22;11870;53.084;18.206;2022-11-20T15:49:16;0.20;99.90
23395;DHT22;11870;53.084;18.206;2022-11-20T15:51:47;0.20;99.90
23395;DHT22;11870;53.084;18.206;2022-11-20T15:54:15;0.20;99.90
23395;DHT22;11870;53.084;18.206;2022-11-20T15:56:43;0.20;99.90
23395;DHT22;11870;53.084;18.206;2022-11-20T15:59:09;0.20;99.90
23395;DHT22;11870;53.084;18.206;2022-11-20T16:01:35;0.30;99.90
23395;DHT22;11870;53.084;18.206;2022-11-20T16:04:01;0.40;99.90
23395;DHT22;11870;53.084;18.206;2022-11-20T16:06:27;0.30;99.90
23395;DHT22;11870;53.084;18.206;2022-11-20T16:08:53;0.30;99.90
23395;DHT22;11870;53.084;18.206;2022-11-20T16:11:19;0.20;99.90
23395;DHT22;11870;53.084;18.206;2022-11-20T16:13:45;0.10;99.90
23395;DHT22;11870;53.084;18.206;2022-11-20T16:16:33;0.10;99.90
23395;DHT22;11870;53.084;18.206;2022-11-20T16:18:59;0.20;99.90
23395;DHT22;11870;53.084;18.206;2022-11-20T16:21:26;0.10;99.90
23395;DHT22;11870;53.084;18.206;2022-11-20T16:24:04;0.10;99.90
23395;DHT22;11870;53.084;18.206;2022-11-20T16:26:31;0.00;99.90
23395;DHT22;11870;53.084;18.206;2022-11-20T16:28:59;-0.10;99.90
23395;DHT22;11870;53.084;18.206;2022-11-20T16:31:25;-0.10;99.90
23395;DHT22;11870;53.084;18.206;2022-11-20T16:33:52;-0.10;99.90
23395;DHT22;11870;53.084;18.206;2022-11-20T16:36:20;0.00;99.90
23395;DHT22;11870;53.084;18.206;2022-11-20T16:38:46;0.00;99.90
23395;DHT22;11870;53.084;18.206;2022-11-20T16:41:12;0.00;99.90
23395;DHT22;11870;53.084;18.206;2022-11-20T16:43:46;0.00;99.90
23395;DHT22;11870;53.084;18.206;2022-11-20T16:46:16;0.10;99.90
23395;DHT22;11870;53.084;18.206;2022-11-20T16:48:42;0.00;99.90
23395;DHT22;11870;53.084;18.206;2022-11-20T16:51:09;0.00;99.90
23395;DHT22;11870;53.084;18.206;2022-11-20T16:53:36;0.10;99.90
23395;DHT22;11870;53.084;18.206;2022-11-20T16:56:17;0.10;99.90
23395;DHT22;11870;53.084;18.206;2022-11-20T16:58:45;0.10;99.90